sensor_id;sensor_type;location;lat;lon;timestamp;P1;durP1;ratioP1;P2;durP2;ratioP2
56949;SDS011;74437;50.080;19.924;2024-02-04T00:00:22;7.82;;;4.88;;
56949;SDS011;74437;50.080;19.924;2024-02-04T00:02:47;7.53;;;4.55;;
56949;SDS011;74437;50.080;19.924;2024-02-04T00:05:12;7.47;;;4.80;;
56949;SDS011;74437;50.080;19.924;2024-02-04T00:07:38;7.95;;;4.53;;
56949;SDS011;74437;50.080;19.924;2024-02-04T00:10:03;6.47;;;4.80;;
56949;SDS011;74437;50.080;19.924;2024-02-04T00:12:29;6.70;;;4.55;;
56949;SDS011;74437;50.080;19.924;2024-02-04T00:14:54;7.22;;;4.70;;
56949;SDS011;74437;50.080;19.924;2024-02-04T00:17:19;8.00;;;5.18;;
56949;SDS011;74437;50.080;19.924;2024-02-04T00:19:45;8.63;;;5.35;;
56949;SDS011;74437;50.080;19.924;2024-02-04T00:22:10;7.60;;;5.18;;
56949;SDS011;74437;50.080;19.924;2024-02-04T00:24:35;8.40;;;5.13;;
56949;SDS011;74437;50.080;19.924;2024-02-04T00:27:01;7.80;;;4.85;;
56949;SDS011;74437;50.080;19.924;2024-02-04T00:29:26;8.55;;;5.32;;
56949;SDS011;74437;50.080;19.924;2024-02-04T00:31:51;7.75;;;5.10;;
56949;SDS011;74437;50.080;19.924;2024-02-04T00:34:16;6.57;;;4.80;;
56949;SDS011;74437;50.080;19.924;2024-02-04T00:36:42;8.75;;;4.32;;
56949;SDS011;74437;50.080;19.924;2024-02-04T00:39:07;7.78;;;4.60;;
56949;SDS011;74437;50.080;19.924;2024-02-04T00:41:33;8.32;;;5.03;;
56949;SDS011;74437;50.080;19.924;2024-02-04T00:43:59;8.23;;;5.03;;
56949;SDS011;74437;50.080;19.924;2024-02-04T00:46:25;10.70;;;4.10;;
56949;SDS011;74437;50.080;19.924;2024-02-04T00:48:50;8.65;;;4.65;;
56949;SDS011;74437;50.080;19.924;2024-02-04T00:51:16;7.18;;;4.32;;
56949;SDS011;74437;50.080;19.924;2024-02-04T00:53:45;6.15;;;4.47;;
56949;SDS011;74437;50.080;19.924;2024-02-04T00:56:11;6.97;;;4.70;;
56949;SDS011;74437;50.080;19.924;2024-02-04T00:58:36;8.05;;;4.80;;
56949;SDS011;74437;50.080;19.924;2024-02-04T01:01:02;6.97;;;4.38;;
56949;SDS011;74437;50.080;19.924;2024-02-04T01:03:28;6.88;;;4.78;;
56949;SDS011;74437;50.080;19.924;2024-02-04T01:05:54;7.05;;;4.80;;
56949;SDS011;74437;50.080;19.924;2024-02-04T01:08:20;8.60;;;5.50;;
56949;SDS011;74437;50.080;19.924;2024-02-04T01:10:45;8.15;;;5.72;;
56949;SDS011;74437;50.080;19.924;2024-02-04T01:13:11;10.90;;;5.88;;
56949;SDS011;74437;50.080;19.924;2024-02-04T01:15:37;8.52;;;5.93;;
56949;SDS011;74437;50.080;19.924;2024-02-04T01:18:02;10.07;;;6.18;;
56949;SDS011;74437;50.080;19.924;2024-02-04T01:20:27;8.57;;;6.30;;
56949;SDS011;74437;50.080;19.924;2024-02-04T01:22:53;8.13;;;6.32;;
56949;SDS011;74437;50.080;19.924;2024-02-04T01:25:18;8.45;;;5.93;;
56949;SDS011;74437;50.080;19.924;2024-02-04T01:27:43;9.65;;;6.50;;
56949;SDS011;74437;50.080;19.924;2024-02-04T01:30:09;8.50;;;6.82;;
56949;SDS011;74437;50.080;19.924;2024-02-04T01:32:34;10.50;;;7.55;;
56949;SDS011;74437;50.080;19.924;2024-02-04T01:35:00;9.13;;;6.88;;
56949;SDS011;74437;50.080;19.924;2024-02-04T01:37:25;10.60;;;7.07;;
56949;SDS011;74437;50.080;19.924;2024-02-04T01:39:50;10.13;;;6.93;;
56949;SDS011;74437;50.080;19.924;2024-02-04T01:42:15;10.20;;;7.30;;
56949;SDS011;74437;50.080;19.924;2024-02-04T01:44:41;11.50;;;8.10;;
56949;SDS011;74437;50.080;19.924;2024-02-04T01:47:07;10.27;;;7.43;;
56949;SDS011;74437;50.080;19.924;2024-02-04T01:49:32;9.73;;;7.15;;
56949;SDS011;74437;50.080;19.924;2024-02-04T01:51:58;9.07;;;6.18;;
56949;SDS011;74437;50.080;19.924;2024-02-04T01:54:24;11.40;;;7.25;;
56949;SDS011;74437;50.080;19.924;2024-02-04T01:56:50;10.98;;;6.88;;
56949;SDS011;74437;50.080;19.924;2024-02-04T01:59:17;9.35;;;6.65;;
56949;SDS011;74437;50.080;19.924;2024-02-04T02:01:44;9.07;;;6.70;;
56949;SDS011;74437;50.080;19.924;2024-02-04T02:04:10;9.40;;;6.70;;
56949;SDS011;74437;50.080;19.924;2024-02-04T02:06:36;9.25;;;6.38;;
56949;SDS011;74437;50.080;19.924;2024-02-04T02:09:06;9.52;;;6.72;;
56949;SDS011;74437;50.080;19.924;2024-02-04T02:14:13;11.48;;;6.97;;
56949;SDS011;74437;50.080;19.924;2024-02-04T02:16:41;10.05;;;7.13;;
56949;SDS011;74437;50.080;19.924;2024-02-04T02:19:12;12.30;;;6.85;;
56949;SDS011;74437;50.080;19.924;2024-02-04T02:24:50;11.00;;;7.38;;
56949;SDS011;74437;50.080;19.924;2024-02-04T02:27:17;13.75;;;7.07;;
56949;SDS011;74437;50.080;19.924;2024-02-04T02:29:42;11.50;;;7.47;;
56949;SDS011;74437;50.080;19.924;2024-02-04T02:32:07;10.27;;;7.28;;
56949;SDS011;74437;50.080;19.924;2024-02-04T02:34:33;10.57;;;6.95;;
56949;SDS011;74437;50.080;19.924;2024-02-04T02:39:49;9.30;;;7.05;;
56949;SDS011;74437;50.080;19.924;2024-02-04T02:42:25;10.70;;;6.80;;
56949;SDS011;74437;50.080;19.924;2024-02-04T02:44:51;7.95;;;6.25;;
56949;SDS011;74437;50.080;19.924;2024-02-04T02:47:18;11.90;;;6.70;;
56949;SDS011;74437;50.080;19.924;2024-02-04T02:49:44;9.10;;;6.13;;
56949;SDS011;74437;50.080;19.924;2024-02-04T02:52:10;8.05;;;5.75;;
56949;SDS011;74437;50.080;19.924;2024-02-04T02:54:35;8.38;;;5.95;;
56949;SDS011;74437;50.080;19.924;2024-02-04T02:57:00;8.77;;;5.75;;
56949;SDS011;74437;50.080;19.924;2024-02-04T02:59:25;9.15;;;6.20;;
56949;SDS011;74437;50.080;19.924;2024-02-04T03:01:51;7.57;;;5.80;;
56949;SDS011;74437;50.080;19.924;2024-02-04T03:04:16;6.10;;;5.25;;
56949;SDS011;74437;50.080;19.924;2024-02-04T03:06:41;6.38;;;4.55;;
56949;SDS011;74437;50.080;19.924;2024-02-04T03:09:06;6.35;;;4.28;;
56949;SDS011;74437;50.080;19.924;2024-02-04T03:11:32;4.20;;;3.08;;
56949;SDS011;74437;50.080;19.924;2024-02-04T03:13:57;6.05;;;4.18;;
56949;SDS011;74437;50.080;19.924;2024-02-04T03:16:23;5.18;;;3.60;;
56949;SDS011;74437;50.080;19.924;2024-02-04T03:18:48;5.53;;;3.85;;
56949;SDS011;74437;50.080;19.924;2024-02-04T03:21:13;7.95;;;3.65;;
56949;SDS011;74437;50.080;19.924;2024-02-04T03:23:40;4.82;;;3.72;;
56949;SDS011;74437;50.080;19.924;2024-02-04T03:26:07;5.63;;;3.33;;
56949;SDS011;74437;50.080;19.924;2024-02-04T03:28:32;5.70;;;3.38;;
56949;SDS011;74437;50.080;19.924;2024-02-04T03:30:57;3.67;;;2.78;;
56949;SDS011;74437;50.080;19.924;2024-02-04T03:33:23;5.05;;;3.22;;
56949;SDS011;74437;50.080;19.924;2024-02-04T03:35:48;5.35;;;2.90;;
56949;SDS011;74437;50.080;19.924;2024-02-04T03:38:13;4.40;;;2.67;;
56949;SDS011;74437;50.080;19.924;2024-02-04T03:40:39;4.55;;;2.53;;
56949;SDS011;74437;50.080;19.924;2024-02-04T03:43:07;4.70;;;1.83;;
56949;SDS011;74437;50.080;19.924;2024-02-04T03:45:33;4.03;;;2.40;;
56949;SDS011;74437;50.080;19.924;2024-02-04T03:48:00;3.40;;;2.00;;
56949;SDS011;74437;50.080;19.924;2024-02-04T03:50:26;2.75;;;1.75;;
56949;SDS011;74437;50.080;19.924;2024-02-04T03:52:51;3.83;;;2.05;;
56949;SDS011;74437;50.080;19.924;2024-02-04T03:55:16;4.82;;;2.00;;
56949;SDS011;74437;50.080;19.924;2024-02-04T03:57:41;3.72;;;2.05;;
56949;SDS011;74437;50.080;19.924;2024-02-04T04:00:07;5.57;;;2.20;;
56949;SDS011;74437;50.080;19.924;2024-02-04T04:02:32;3.90;;;2.08;;
56949;SDS011;74437;50.080;19.924;2024-02-04T04:04:58;2.55;;;1.80;;
56949;SDS011;74437;50.080;19.924;2024-02-04T04:07:23;3.22;;;1.95;;
56949;SDS011;74437;50.080;19.924;2024-02-04T04:09:48;3.60;;;2.13;;
56949;SDS011;74437;50.080;19.924;2024-02-04T04:12:13;4.07;;;2.13;;
56949;SDS011;74437;50.080;19.924;2024-02-04T04:14:39;4.85;;;2.05;;
56949;SDS011;74437;50.080;19.924;2024-02-04T04:17:04;4.75;;;2.65;;
56949;SDS011;74437;50.080;19.924;2024-02-04T04:19:29;5.32;;;2.58;;
56949;SDS011;74437;50.080;19.924;2024-02-04T04:21:55;5.00;;;2.60;;
56949;SDS011;74437;50.080;19.924;2024-02-04T04:24:21;3.83;;;2.17;;
56949;SDS011;74437;50.080;19.924;2024-02-04T04:26:47;3.45;;;1.92;;
56949;SDS011;74437;50.080;19.924;2024-02-04T04:29:12;4.43;;;2.20;;
56949;SDS011;74437;50.080;19.924;2024-02-04T04:31:37;4.28;;;1.83;;
56949;SDS011;74437;50.080;19.924;2024-02-04T04:34:03;3.10;;;1.63;;
56949;SDS011;74437;50.080;19.924;2024-02-04T04:36:28;3.75;;;1.77;;
56949;SDS011;74437;50.080;19.924;2024-02-04T04:38:53;2.60;;;1.50;;
56949;SDS011;74437;50.080;19.924;2024-02-04T04:41:18;3.03;;;1.48;;
56949;SDS011;74437;50.080;19.924;2024-02-04T04:43:44;4.35;;;1.42;;
56949;SDS011;74437;50.080;19.924;2024-02-04T04:46:09;2.47;;;1.30;;
56949;SDS011;74437;50.080;19.924;2024-02-04T04:48:34;5.75;;;1.38;;
56949;SDS011;74437;50.080;19.924;2024-02-04T04:50:59;3.00;;;1.60;;
56949;SDS011;74437;50.080;19.924;2024-02-04T04:53:25;3.40;;;1.60;;
56949;SDS011;74437;50.080;19.924;2024-02-04T04:55:50;2.78;;;1.33;;
56949;SDS011;74437;50.080;19.924;2024-02-04T04:58:15;3.95;;;1.67;;
56949;SDS011;74437;50.080;19.924;2024-02-04T05:00:41;2.50;;;1.45;;
56949;SDS011;74437;50.080;19.924;2024-02-04T05:03:06;2.75;;;1.30;;
56949;SDS011;74437;50.080;19.924;2024-02-04T05:05:31;5.18;;;1.30;;
56949;SDS011;74437;50.080;19.924;2024-02-04T05:07:56;3.65;;;1.50;;
56949;SDS011;74437;50.080;19.924;2024-02-04T05:10:22;2.25;;;1.40;;
56949;SDS011;74437;50.080;19.924;2024-02-04T05:12:47;6.25;;;1.75;;
56949;SDS011;74437;50.080;19.924;2024-02-04T05:15:13;6.07;;;1.65;;
56949;SDS011;74437;50.080;19.924;2024-02-04T05:17:38;3.92;;;2.17;;
56949;SDS011;74437;50.080;19.924;2024-02-04T05:20:03;2.83;;;1.65;;
56949;SDS011;74437;50.080;19.924;2024-02-04T05:22:29;2.95;;;1.83;;
56949;SDS011;74437;50.080;19.924;2024-02-04T05:24:54;5.15;;;1.85;;
56949;SDS011;74437;50.080;19.924;2024-02-04T05:27:20;2.17;;;1.55;;
56949;SDS011;74437;50.080;19.924;2024-02-04T05:29:45;3.90;;;1.70;;
56949;SDS011;74437;50.080;19.924;2024-02-04T05:32:10;4.38;;;1.77;;
56949;SDS011;74437;50.080;19.924;2024-02-04T05:34:37;3.40;;;1.70;;
56949;SDS011;74437;50.080;19.924;2024-02-04T05:37:02;3.50;;;1.70;;
56949;SDS011;74437;50.080;19.924;2024-02-04T05:39:28;3.17;;;1.75;;
56949;SDS011;74437;50.080;19.924;2024-02-04T05:41:53;4.03;;;1.90;;
56949;SDS011;74437;50.080;19.924;2024-02-04T05:44:18;4.50;;;1.92;;
56949;SDS011;74437;50.080;19.924;2024-02-04T05:46:44;5.00;;;1.98;;
56949;SDS011;74437;50.080;19.924;2024-02-04T05:49:09;4.30;;;2.10;;
56949;SDS011;74437;50.080;19.924;2024-02-04T05:51:38;3.40;;;1.77;;
56949;SDS011;74437;50.080;19.924;2024-02-04T05:54:07;3.80;;;1.90;;
56949;SDS011;74437;50.080;19.924;2024-02-04T05:56:33;4.22;;;1.90;;
56949;SDS011;74437;50.080;19.924;2024-02-04T05:58:58;5.22;;;2.00;;
56949;SDS011;74437;50.080;19.924;2024-02-04T06:01:24;3.40;;;1.90;;
56949;SDS011;74437;50.080;19.924;2024-02-04T06:03:49;3.47;;;1.42;;
56949;SDS011;74437;50.080;19.924;2024-02-04T06:06:15;3.05;;;1.45;;
56949;SDS011;74437;50.080;19.924;2024-02-04T06:08:41;1.70;;;1.15;;
56949;SDS011;74437;50.080;19.924;2024-02-04T06:11:09;4.90;;;1.45;;
56949;SDS011;74437;50.080;19.924;2024-02-04T06:13:35;2.35;;;1.10;;
56949;SDS011;74437;50.080;19.924;2024-02-04T06:16:00;2.00;;;1.48;;
56949;SDS011;74437;50.080;19.924;2024-02-04T06:18:26;2.72;;;1.55;;
56949;SDS011;74437;50.080;19.924;2024-02-04T06:20:51;2.42;;;1.48;;
56949;SDS011;74437;50.080;19.924;2024-02-04T06:23:16;2.92;;;1.58;;
56949;SDS011;74437;50.080;19.924;2024-02-04T06:25:43;4.40;;;1.60;;
56949;SDS011;74437;50.080;19.924;2024-02-04T06:28:08;3.75;;;1.80;;
56949;SDS011;74437;50.080;19.924;2024-02-04T06:30:34;3.47;;;1.88;;
56949;SDS011;74437;50.080;19.924;2024-02-04T06:32:59;7.22;;;2.70;;
56949;SDS011;74437;50.080;19.924;2024-02-04T06:35:24;3.38;;;2.03;;
56949;SDS011;74437;50.080;19.924;2024-02-04T06:37:50;3.33;;;2.45;;
56949;SDS011;74437;50.080;19.924;2024-02-04T06:40:15;2.95;;;2.40;;
56949;SDS011;74437;50.080;19.924;2024-02-04T06:42:40;3.30;;;2.47;;
56949;SDS011;74437;50.080;19.924;2024-02-04T06:45:06;4.40;;;2.78;;
56949;SDS011;74437;50.080;19.924;2024-02-04T06:47:31;3.83;;;2.30;;
56949;SDS011;74437;50.080;19.924;2024-02-04T06:49:56;3.05;;;2.40;;
56949;SDS011;74437;50.080;19.924;2024-02-04T06:52:22;5.03;;;1.73;;
56949;SDS011;74437;50.080;19.924;2024-02-04T06:54:47;2.53;;;2.00;;
56949;SDS011;74437;50.080;19.924;2024-02-04T06:57:13;5.30;;;2.05;;
56949;SDS011;74437;50.080;19.924;2024-02-04T06:59:38;3.30;;;2.90;;
56949;SDS011;74437;50.080;19.924;2024-02-04T07:02:03;4.82;;;2.42;;
56949;SDS011;74437;50.080;19.924;2024-02-04T07:04:29;4.20;;;2.83;;
56949;SDS011;74437;50.080;19.924;2024-02-04T07:06:54;5.13;;;2.70;;
56949;SDS011;74437;50.080;19.924;2024-02-04T07:09:19;4.72;;;3.00;;
56949;SDS011;74437;50.080;19.924;2024-02-04T07:11:45;4.88;;;2.80;;
56949;SDS011;74437;50.080;19.924;2024-02-04T07:14:10;5.05;;;2.70;;
56949;SDS011;74437;50.080;19.924;2024-02-04T07:16:36;3.72;;;3.08;;
56949;SDS011;74437;50.080;19.924;2024-02-04T07:19:01;4.75;;;2.42;;
56949;SDS011;74437;50.080;19.924;2024-02-04T07:21:27;8.10;;;2.70;;
56949;SDS011;74437;50.080;19.924;2024-02-04T07:23:53;5.72;;;2.40;;
56949;SDS011;74437;50.080;19.924;2024-02-04T07:26:18;2.60;;;1.92;;
56949;SDS011;74437;50.080;19.924;2024-02-04T07:28:43;3.50;;;2.08;;
56949;SDS011;74437;50.080;19.924;2024-02-04T07:31:08;2.30;;;1.67;;
56949;SDS011;74437;50.080;19.924;2024-02-04T07:33:34;6.38;;;1.98;;
56949;SDS011;74437;50.080;19.924;2024-02-04T07:35:59;2.40;;;1.73;;
56949;SDS011;74437;50.080;19.924;2024-02-04T07:38:24;2.67;;;1.88;;
56949;SDS011;74437;50.080;19.924;2024-02-04T07:40:50;2.30;;;1.80;;
56949;SDS011;74437;50.080;19.924;2024-02-04T07:43:15;3.58;;;1.80;;
56949;SDS011;74437;50.080;19.924;2024-02-04T07:45:41;5.03;;;1.90;;
56949;SDS011;74437;50.080;19.924;2024-02-04T07:48:07;3.05;;;1.45;;
56949;SDS011;74437;50.080;19.924;2024-02-04T07:50:34;4.35;;;1.83;;
56949;SDS011;74437;50.080;19.924;2024-02-04T07:52:59;4.43;;;1.88;;
56949;SDS011;74437;50.080;19.924;2024-02-04T07:55:24;5.35;;;1.95;;
56949;SDS011;74437;50.080;19.924;2024-02-04T07:57:50;5.20;;;1.80;;
56949;SDS011;74437;50.080;19.924;2024-02-04T08:00:15;6.10;;;2.10;;
56949;SDS011;74437;50.080;19.924;2024-02-04T08:02:40;4.30;;;1.98;;
56949;SDS011;74437;50.080;19.924;2024-02-04T08:05:06;4.60;;;1.50;;
56949;SDS011;74437;50.080;19.924;2024-02-04T08:07:31;3.53;;;1.55;;
56949;SDS011;74437;50.080;19.924;2024-02-04T08:09:57;5.97;;;1.40;;
56949;SDS011;74437;50.080;19.924;2024-02-04T08:12:22;3.80;;;1.23;;
56949;SDS011;74437;50.080;19.924;2024-02-04T08:14:48;4.93;;;1.60;;
56949;SDS011;74437;50.080;19.924;2024-02-04T08:17:13;3.83;;;1.23;;
56949;SDS011;74437;50.080;19.924;2024-02-04T08:19:38;1.88;;;1.20;;
56949;SDS011;74437;50.080;19.924;2024-02-04T08:22:04;5.65;;;1.50;;
56949;SDS011;74437;50.080;19.924;2024-02-04T08:24:30;4.57;;;1.40;;
56949;SDS011;74437;50.080;19.924;2024-02-04T08:26:57;5.72;;;1.30;;
56949;SDS011;74437;50.080;19.924;2024-02-04T08:29:23;3.55;;;1.30;;
56949;SDS011;74437;50.080;19.924;2024-02-04T08:31:48;4.20;;;1.33;;
56949;SDS011;74437;50.080;19.924;2024-02-04T08:34:14;7.90;;;1.65;;
56949;SDS011;74437;50.080;19.924;2024-02-04T08:36:39;4.32;;;1.42;;
56949;SDS011;74437;50.080;19.924;2024-02-04T08:39:04;5.13;;;1.45;;
56949;SDS011;74437;50.080;19.924;2024-02-04T08:41:29;4.70;;;1.50;;
56949;SDS011;74437;50.080;19.924;2024-02-04T08:43:55;3.50;;;1.15;;
56949;SDS011;74437;50.080;19.924;2024-02-04T08:46:20;4.05;;;1.35;;
56949;SDS011;74437;50.080;19.924;2024-02-04T08:48:45;2.78;;;0.95;;
56949;SDS011;74437;50.080;19.924;2024-02-04T08:51:11;4.43;;;1.55;;
56949;SDS011;74437;50.080;19.924;2024-02-04T08:53:38;2.78;;;1.20;;
56949;SDS011;74437;50.080;19.924;2024-02-04T08:56:04;3.88;;;1.60;;
56949;SDS011;74437;50.080;19.924;2024-02-04T08:58:30;5.78;;;1.48;;
56949;SDS011;74437;50.080;19.924;2024-02-04T09:00:56;6.25;;;1.58;;
56949;SDS011;74437;50.080;19.924;2024-02-04T09:03:21;8.38;;;1.45;;
56949;SDS011;74437;50.080;19.924;2024-02-04T09:05:46;6.97;;;2.30;;
56949;SDS011;74437;50.080;19.924;2024-02-04T09:08:11;7.07;;;1.83;;
56949;SDS011;74437;50.080;19.924;2024-02-04T09:10:37;5.75;;;1.63;;
56949;SDS011;74437;50.080;19.924;2024-02-04T09:13:02;3.60;;;1.60;;
56949;SDS011;74437;50.080;19.924;2024-02-04T09:15:27;6.45;;;1.73;;
56949;SDS011;74437;50.080;19.924;2024-02-04T09:17:53;4.53;;;2.30;;
56949;SDS011;74437;50.080;19.924;2024-02-04T09:20:18;4.97;;;2.10;;
56949;SDS011;74437;50.080;19.924;2024-02-04T09:22:43;5.07;;;2.47;;
56949;SDS011;74437;50.080;19.924;2024-02-04T09:25:08;7.22;;;2.80;;
56949;SDS011;74437;50.080;19.924;2024-02-04T09:27:34;7.28;;;2.65;;
56949;SDS011;74437;50.080;19.924;2024-02-04T09:29:59;6.50;;;2.50;;
56949;SDS011;74437;50.080;19.924;2024-02-04T09:32:25;5.68;;;2.78;;
56949;SDS011;74437;50.080;19.924;2024-02-04T09:34:50;5.70;;;3.00;;
56949;SDS011;74437;50.080;19.924;2024-02-04T09:37:15;5.43;;;2.63;;
56949;SDS011;74437;50.080;19.924;2024-02-04T09:39:41;6.40;;;2.60;;
56949;SDS011;74437;50.080;19.924;2024-02-04T09:42:06;8.32;;;2.97;;
56949;SDS011;74437;50.080;19.924;2024-02-04T09:44:32;6.88;;;2.35;;
56949;SDS011;74437;50.080;19.924;2024-02-04T09:46:58;6.55;;;3.03;;
56949;SDS011;74437;50.080;19.924;2024-02-04T09:49:26;4.43;;;2.17;;
56949;SDS011;74437;50.080;19.924;2024-02-04T09:51:52;7.63;;;2.42;;
56949;SDS011;74437;50.080;19.924;2024-02-04T09:54:18;5.15;;;2.00;;
56949;SDS011;74437;50.080;19.924;2024-02-04T09:56:46;8.27;;;2.50;;
56949;SDS011;74437;50.080;19.924;2024-02-04T09:59:12;5.25;;;2.00;;
56949;SDS011;74437;50.080;19.924;2024-02-04T10:01:37;5.13;;;2.00;;
56949;SDS011;74437;50.080;19.924;2024-02-04T10:04:03;7.25;;;2.42;;
56949;SDS011;74437;50.080;19.924;2024-02-04T10:06:29;4.65;;;1.75;;
56949;SDS011;74437;50.080;19.924;2024-02-04T10:08:54;7.95;;;2.33;;
56949;SDS011;74437;50.080;19.924;2024-02-04T10:11:20;5.72;;;2.03;;
56949;SDS011;74437;50.080;19.924;2024-02-04T10:13:45;8.60;;;2.03;;
56949;SDS011;74437;50.080;19.924;2024-02-04T10:16:12;9.48;;;2.35;;
56949;SDS011;74437;50.080;19.924;2024-02-04T10:18:42;6.45;;;1.80;;
56949;SDS011;74437;50.080;19.924;2024-02-04T10:21:18;5.35;;;1.95;;
56949;SDS011;74437;50.080;19.924;2024-02-04T10:23:45;4.72;;;2.10;;
56949;SDS011;74437;50.080;19.924;2024-02-04T10:26:11;6.28;;;2.45;;
56949;SDS011;74437;50.080;19.924;2024-02-04T10:28:37;7.13;;;2.22;;
56949;SDS011;74437;50.080;19.924;2024-02-04T10:31:03;11.68;;;3.03;;
56949;SDS011;74437;50.080;19.924;2024-02-04T10:33:31;8.18;;;2.63;;
56949;SDS011;74437;50.080;19.924;2024-02-04T10:38:22;5.22;;;2.65;;
56949;SDS011;74437;50.080;19.924;2024-02-04T10:40:49;7.57;;;2.53;;
56949;SDS011;74437;50.080;19.924;2024-02-04T10:43:18;7.47;;;3.00;;
56949;SDS011;74437;50.080;19.924;2024-02-04T10:45:45;9.20;;;3.97;;
56949;SDS011;74437;50.080;19.924;2024-02-04T10:48:12;6.35;;;3.00;;
56949;SDS011;74437;50.080;19.924;2024-02-04T10:50:43;5.53;;;2.47;;
56949;SDS011;74437;50.080;19.924;2024-02-04T10:53:11;5.38;;;2.58;;
56949;SDS011;74437;50.080;19.924;2024-02-04T10:55:40;7.97;;;2.72;;
56949;SDS011;74437;50.080;19.924;2024-02-04T10:58:07;6.30;;;2.50;;
56949;SDS011;74437;50.080;19.924;2024-02-04T11:00:35;7.40;;;2.67;;
56949;SDS011;74437;50.080;19.924;2024-02-04T11:03:00;7.38;;;2.60;;
56949;SDS011;74437;50.080;19.924;2024-02-04T11:05:28;4.32;;;2.38;;
56949;SDS011;74437;50.080;19.924;2024-02-04T11:07:54;4.93;;;2.17;;
56949;SDS011;74437;50.080;19.924;2024-02-04T11:10:20;4.47;;;2.30;;
56949;SDS011;74437;50.080;19.924;2024-02-04T11:12:46;6.03;;;2.15;;
56949;SDS011;74437;50.080;19.924;2024-02-04T11:15:14;6.30;;;2.38;;
56949;SDS011;74437;50.080;19.924;2024-02-04T11:23:40;3.45;;;1.75;;
56949;SDS011;74437;50.080;19.924;2024-02-04T11:26:16;6.43;;;2.40;;
56949;SDS011;74437;50.080;19.924;2024-02-04T11:28:43;4.50;;;1.98;;
56949;SDS011;74437;50.080;19.924;2024-02-04T11:31:17;5.03;;;1.98;;
56949;SDS011;74437;50.080;19.924;2024-02-04T11:33:43;3.83;;;1.80;;
56949;SDS011;74437;50.080;19.924;2024-02-04T11:36:13;3.08;;;1.63;;
56949;SDS011;74437;50.080;19.924;2024-02-04T11:38:39;5.55;;;2.13;;
56949;SDS011;74437;50.080;19.924;2024-02-04T11:41:05;7.22;;;2.08;;
56949;SDS011;74437;50.080;19.924;2024-02-04T11:43:35;4.93;;;2.08;;
56949;SDS011;74437;50.080;19.924;2024-02-04T11:46:04;3.67;;;1.63;;
56949;SDS011;74437;50.080;19.924;2024-02-04T11:48:31;4.82;;;2.47;;
56949;SDS011;74437;50.080;19.924;2024-02-04T11:50:58;5.18;;;2.42;;
56949;SDS011;74437;50.080;19.924;2024-02-04T11:53:27;3.33;;;1.77;;
56949;SDS011;74437;50.080;19.924;2024-02-04T11:55:57;6.30;;;2.30;;
56949;SDS011;74437;50.080;19.924;2024-02-04T11:58:23;5.15;;;2.35;;
56949;SDS011;74437;50.080;19.924;2024-02-04T12:00:50;7.15;;;2.35;;
56949;SDS011;74437;50.080;19.924;2024-02-04T12:03:28;10.35;;;2.80;;
56949;SDS011;74437;50.080;19.924;2024-02-04T12:05:54;6.47;;;2.60;;
56949;SDS011;74437;50.080;19.924;2024-02-04T12:08:20;10.85;;;3.15;;
56949;SDS011;74437;50.080;19.924;2024-02-04T12:10:46;6.32;;;2.70;;
56949;SDS011;74437;50.080;19.924;2024-02-04T12:13:12;6.10;;;2.78;;
56949;SDS011;74437;50.080;19.924;2024-02-04T12:15:37;4.70;;;2.67;;
56949;SDS011;74437;50.080;19.924;2024-02-04T12:18:10;4.90;;;2.88;;
56949;SDS011;74437;50.080;19.924;2024-02-04T12:20:36;8.45;;;3.55;;
56949;SDS011;74437;50.080;19.924;2024-02-04T12:23:06;6.65;;;2.92;;
56949;SDS011;74437;50.080;19.924;2024-02-04T12:25:32;6.25;;;2.97;;
56949;SDS011;74437;50.080;19.924;2024-02-04T12:27:58;8.48;;;3.05;;
56949;SDS011;74437;50.080;19.924;2024-02-04T12:30:24;8.25;;;3.10;;
56949;SDS011;74437;50.080;19.924;2024-02-04T12:32:59;6.60;;;3.08;;
56949;SDS011;74437;50.080;19.924;2024-02-04T12:35:25;8.00;;;3.97;;
56949;SDS011;74437;50.080;19.924;2024-02-04T12:37:52;7.67;;;3.30;;
56949;SDS011;74437;50.080;19.924;2024-02-04T12:42:52;9.85;;;3.92;;
56949;SDS011;74437;50.080;19.924;2024-02-04T12:45:22;6.57;;;3.80;;
56949;SDS011;74437;50.080;19.924;2024-02-04T12:47:51;9.60;;;4.13;;
56949;SDS011;74437;50.080;19.924;2024-02-04T12:50:17;8.43;;;4.43;;
56949;SDS011;74437;50.080;19.924;2024-02-04T12:52:44;8.30;;;4.82;;
56949;SDS011;74437;50.080;19.924;2024-02-04T12:55:19;9.38;;;5.00;;
56949;SDS011;74437;50.080;19.924;2024-02-04T12:57:45;9.73;;;5.32;;
56949;SDS011;74437;50.080;19.924;2024-02-04T13:00:11;10.52;;;5.88;;
56949;SDS011;74437;50.080;19.924;2024-02-04T13:02:37;9.52;;;5.32;;
56949;SDS011;74437;50.080;19.924;2024-02-04T13:05:02;7.05;;;5.15;;
56949;SDS011;74437;50.080;19.924;2024-02-04T13:07:27;9.07;;;5.00;;
56949;SDS011;74437;50.080;19.924;2024-02-04T13:09:59;12.35;;;5.63;;
56949;SDS011;74437;50.080;19.924;2024-02-04T13:12:27;9.93;;;5.88;;
56949;SDS011;74437;50.080;19.924;2024-02-04T13:14:52;13.68;;;5.85;;
56949;SDS011;74437;50.080;19.924;2024-02-04T13:17:18;11.43;;;5.53;;
56949;SDS011;74437;50.080;19.924;2024-02-04T13:19:43;9.85;;;5.70;;
56949;SDS011;74437;50.080;19.924;2024-02-04T13:22:09;11.80;;;6.22;;
56949;SDS011;74437;50.080;19.924;2024-02-04T13:24:35;8.70;;;5.53;;
56949;SDS011;74437;50.080;19.924;2024-02-04T13:27:00;12.10;;;5.88;;
56949;SDS011;74437;50.080;19.924;2024-02-04T13:29:27;14.27;;;5.95;;
56949;SDS011;74437;50.080;19.924;2024-02-04T13:31:53;11.57;;;6.57;;
56949;SDS011;74437;50.080;19.924;2024-02-04T13:34:18;11.30;;;6.90;;
56949;SDS011;74437;50.080;19.924;2024-02-04T13:36:45;11.13;;;6.30;;
56949;SDS011;74437;50.080;19.924;2024-02-04T13:39:10;12.48;;;7.05;;
56949;SDS011;74437;50.080;19.924;2024-02-04T13:41:37;13.35;;;7.72;;
56949;SDS011;74437;50.080;19.924;2024-02-04T13:44:03;12.57;;;7.40;;
56949;SDS011;74437;50.080;19.924;2024-02-04T13:46:29;12.05;;;7.07;;
56949;SDS011;74437;50.080;19.924;2024-02-04T13:48:54;13.60;;;7.07;;
56949;SDS011;74437;50.080;19.924;2024-02-04T13:51:19;13.00;;;7.13;;
56949;SDS011;74437;50.080;19.924;2024-02-04T13:53:45;14.00;;;7.18;;
56949;SDS011;74437;50.080;19.924;2024-02-04T13:56:10;11.23;;;6.95;;
56949;SDS011;74437;50.080;19.924;2024-02-04T13:58:35;14.27;;;7.03;;
56949;SDS011;74437;50.080;19.924;2024-02-04T14:01:01;11.77;;;6.97;;
56949;SDS011;74437;50.080;19.924;2024-02-04T14:03:26;12.25;;;6.78;;
56949;SDS011;74437;50.080;19.924;2024-02-04T14:05:51;11.23;;;6.85;;
56949;SDS011;74437;50.080;19.924;2024-02-04T14:08:17;14.52;;;6.38;;
56949;SDS011;74437;50.080;19.924;2024-02-04T14:10:42;9.43;;;5.18;;
56949;SDS011;74437;50.080;19.924;2024-02-04T14:13:07;7.15;;;4.80;;
56949;SDS011;74437;50.080;19.924;2024-02-04T14:15:33;10.70;;;5.18;;
56949;SDS011;74437;50.080;19.924;2024-02-04T14:17:59;11.10;;;4.60;;
56949;SDS011;74437;50.080;19.924;2024-02-04T14:20:24;8.20;;;4.28;;
56949;SDS011;74437;50.080;19.924;2024-02-04T14:22:50;8.88;;;4.72;;
56949;SDS011;74437;50.080;19.924;2024-02-04T14:25:18;6.57;;;3.85;;
56949;SDS011;74437;50.080;19.924;2024-02-04T14:27:44;7.07;;;3.63;;
56949;SDS011;74437;50.080;19.924;2024-02-04T14:30:09;9.57;;;4.38;;
56949;SDS011;74437;50.080;19.924;2024-02-04T14:32:35;6.25;;;3.80;;
56949;SDS011;74437;50.080;19.924;2024-02-04T14:35:00;8.48;;;3.90;;
56949;SDS011;74437;50.080;19.924;2024-02-04T14:37:29;7.28;;;3.80;;
56949;SDS011;74437;50.080;19.924;2024-02-04T14:39:54;7.72;;;4.07;;
56949;SDS011;74437;50.080;19.924;2024-02-04T14:42:20;6.18;;;3.58;;
56949;SDS011;74437;50.080;19.924;2024-02-04T14:44:46;6.07;;;3.28;;